sensor_id;sensor_type;location;lat;lon;timestamp;pressure;altitude;pressure_sealevel;temperature;humidity
74621;BME280;64861;47.546;19.254;2023-04-25T00:01:08;98135.72;;;20.93;54.54
74621;BME280;64861;47.546;19.254;2023-04-25T00:03:34;98136.53;;;20.94;54.68
74621;BME280;64861;47.546;19.254;2023-04-25T00:06:00;98132.88;;;20.95;54.60
74621;BME280;64861;47.546;19.254;2023-04-25T00:08:31;98134.69;;;20.94;54.56
74621;BME280;64861;47.546;19.254;2023-04-25T00:10:57;98135.50;;;20.95;54.50
74621;BME280;64861;47.546;19.254;2023-04-25T00:13:23;98133.69;;;20.95;54.51
74621;BME280;64861;47.546;19.254;2023-04-25T00:15:51;98133.69;;;20.95;54.42
74621;BME280;64861;47.546;19.254;2023-04-25T00:18:21;98129.19;;;20.96;54.40
74621;BME280;64861;47.546;19.254;2023-04-25T00:20:46;98125.53;;;20.97;54.49
74621;BME280;64861;47.546;19.254;2023-04-25T00:23:16;98127.38;;;20.96;54.49
74621;BME280;64861;47.546;19.254;2023-04-25T00:25:50;98119.19;;;20.98;54.41
74621;BME280;64861;47.546;19.254;2023-04-25T00:28:16;98122.88;;;20.97;54.48
74621;BME280;64861;47.546;19.254;2023-04-25T00:30:42;98128.81;;;20.99;54.48
74621;BME280;64861;47.546;19.254;2023-04-25T00:33:08;98122.66;;;20.98;54.33
74621;BME280;64861;47.546;19.254;2023-04-25T00:35:35;98128.81;;;20.99;54.36
74621;BME280;64861;47.546;19.254;2023-04-25T00:38:00;98120.84;;;20.99;54.17
74621;BME280;64861;47.546;19.254;2023-04-25T00:40:26;98102.25;;;20.99;54.22
74621;BME280;64861;47.546;19.254;2023-04-25T00:42:52;98117.19;;;21.00;54.31
74621;BME280;64861;47.546;19.254;2023-04-25T00:45:18;98119.19;;;20.98;54.19
74621;BME280;64861;47.546;19.254;2023-04-25T00:47:45;98111.22;;;20.98;54.17
74621;BME280;64861;47.546;19.254;2023-04-25T00:50:12;98111.88;;;21.00;54.23
74621;BME280;64861;47.546;19.254;2023-04-25T00:52:43;98107.56;;;20.99;54.26
74621;BME280;64861;47.546;19.254;2023-04-25T00:55:10;98109.38;;;20.98;54.15
74621;BME280;64861;47.546;19.254;2023-04-25T00:57:37;98107.16;;;21.02;54.21
74621;BME280;64861;47.546;19.254;2023-04-25T01:00:06;98101.44;;;20.98;54.23
74621;BME280;64861;47.546;19.254;2023-04-25T01:02:33;98096.75;;;21.00;54.28
74621;BME280;64861;47.546;19.254;2023-04-25T01:04:59;98093.88;;;21.02;54.23
74621;BME280;64861;47.546;19.254;2023-04-25T01:07:24;98094.69;;;21.02;54.25
74621;BME280;64861;47.546;19.254;2023-04-25T01:09:52;98092.91;;;21.03;54.20
74621;BME280;64861;47.546;19.254;2023-04-25T01:12:17;98084.72;;;21.04;54.11
74621;BME280;64861;47.546;19.254;2023-04-25T01:14:43;98087.38;;;21.04;54.04
74621;BME280;64861;47.546;19.254;2023-04-25T01:17:09;98088.19;;;21.05;54.12
74621;BME280;64861;47.546;19.254;2023-04-25T01:19:35;98085.53;;;21.05;54.18
74621;BME280;64861;47.546;19.254;2023-04-25T01:22:01;98077.78;;;21.03;54.14
74621;BME280;64861;47.546;19.254;2023-04-25T01:24:26;98084.72;;;21.04;54.28
74621;BME280;64861;47.546;19.254;2023-04-25T01:26:52;98074.09;;;21.04;54.03
74621;BME280;64861;47.546;19.254;2023-04-25T01:29:20;98067.97;;;21.04;54.12
74621;BME280;64861;47.546;19.254;2023-04-25T01:31:46;98071.66;;;21.03;53.91
74621;BME280;64861;47.546;19.254;2023-04-25T01:34:14;98059.78;;;21.05;54.14
74621;BME280;64861;47.546;19.254;2023-04-25T01:36:40;98070.41;;;21.05;54.16
74621;BME280;64861;47.546;19.254;2023-04-25T01:39:06;98077.56;;;21.05;54.12
74621;BME280;64861;47.546;19.254;2023-04-25T01:41:32;98074.53;;;21.08;53.98
74621;BME280;64861;47.546;19.254;2023-04-25T01:43:59;98084.53;;;21.06;53.96
74621;BME280;64861;47.546;19.254;2023-04-25T01:46:26;98083.50;;;21.07;54.02
74621;BME280;64861;47.546;19.254;2023-04-25T01:48:52;98080.84;;;21.07;53.95
74621;BME280;64861;47.546;19.254;2023-04-25T01:51:17;98088.00;;;21.06;53.86
74621;BME280;64861;47.546;19.254;2023-04-25T01:53:43;98081.69;;;21.07;53.81
74621;BME280;64861;47.546;19.254;2023-04-25T01:56:08;98081.69;;;21.07;53.83
74621;BME280;64861;47.546;19.254;2023-04-25T01:58:35;98079.22;;;21.06;53.90
74621;BME280;64861;47.546;19.254;2023-04-25T02:01:00;98073.91;;;21.06;54.06
74621;BME280;64861;47.546;19.254;2023-04-25T02:03:26;98078.19;;;21.07;53.91
74621;BME280;64861;47.546;19.254;2023-04-25T02:05:51;98074.53;;;21.08;53.96
74621;BME280;64861;47.546;19.254;2023-04-25T02:08:17;98071.25;;;21.06;53.91
74621;BME280;64861;47.546;19.254;2023-04-25T02:10:43;98072.06;;;21.06;53.86
74621;BME280;64861;47.546;19.254;2023-04-25T02:13:08;98076.34;;;21.07;53.89
74621;BME280;64861;47.546;19.254;2023-04-25T02:15:34;98072.50;;;21.10;53.92
74621;BME280;64861;47.546;19.254;2023-04-25T02:18:00;98072.50;;;21.10;53.92
74621;BME280;64861;47.546;19.254;2023-04-25T02:20:26;98077.81;;;21.10;53.92
74621;BME280;64861;47.546;19.254;2023-04-25T02:22:52;98072.50;;;21.10;53.80
74621;BME280;64861;47.546;19.254;2023-04-25T02:25:20;98078.63;;;21.10;53.69
74621;BME280;64861;47.546;19.254;2023-04-25T02:27:47;98083.94;;;21.10;53.95
74621;BME280;64861;47.546;19.254;2023-04-25T02:30:12;98081.28;;;21.10;53.88
74621;BME280;64861;47.546;19.254;2023-04-25T02:32:39;98079.66;;;21.09;53.92
74621;BME280;64861;47.546;19.254;2023-04-25T02:35:05;98082.09;;;21.11;53.61
74621;BME280;64861;47.546;19.254;2023-04-25T02:37:32;98081.06;;;21.12;53.74
74621;BME280;64861;47.546;19.254;2023-04-25T02:39:58;98082.09;;;21.11;53.78
74621;BME280;64861;47.546;19.254;2023-04-25T02:42:23;98080.25;;;21.11;53.77
74621;BME280;64861;47.546;19.254;2023-04-25T02:44:49;98084.59;;;21.13;53.80
74621;BME280;64861;47.546;19.254;2023-04-25T02:47:14;98073.31;;;21.10;53.66
74621;BME280;64861;47.546;19.254;2023-04-25T02:49:40;98073.31;;;21.10;53.59
74621;BME280;64861;47.546;19.254;2023-04-25T02:52:05;98073.94;;;21.13;53.61
74621;BME280;64861;47.546;19.254;2023-04-25T02:54:31;98073.09;;;21.12;53.63
74621;BME280;64861;47.546;19.254;2023-04-25T02:56:57;98072.13;;;21.13;53.68
74621;BME280;64861;47.546;19.254;2023-04-25T02:59:22;98060.69;;;21.13;53.73
74621;BME280;64861;47.546;19.254;2023-04-25T03:01:48;98069.63;;;21.11;53.72
74621;BME280;64861;47.546;19.254;2023-04-25T03:04:13;98063.13;;;21.14;53.71
74621;BME280;64861;47.546;19.254;2023-04-25T03:06:39;98057.00;;;21.14;53.58
74621;BME280;64861;47.546;19.254;2023-04-25T03:09:04;98061.09;;;21.16;53.61
74621;BME280;64861;47.546;19.254;2023-04-25T03:11:29;98058.63;;;21.15;53.71
74621;BME280;64861;47.546;19.254;2023-04-25T03:13:55;98061.09;;;21.16;53.63
74621;BME280;64861;47.546;19.254;2023-04-25T03:16:21;98056.78;;;21.15;53.67
74621;BME280;64861;47.546;19.254;2023-04-25T03:18:47;98058.63;;;21.15;53.64
74621;BME280;64861;47.546;19.254;2023-04-25T03:21:12;98059.25;;;21.17;53.63
74621;BME280;64861;47.546;19.254;2023-04-25T03:23:38;98055.56;;;21.18;53.50
74621;BME280;64861;47.546;19.254;2023-04-25T03:26:03;98061.91;;;21.17;53.46
74621;BME280;64861;47.546;19.254;2023-04-25T03:28:29;98055.78;;;21.16;53.62
74621;BME280;64861;47.546;19.254;2023-04-25T03:30:55;98061.69;;;21.18;53.54
74621;BME280;64861;47.546;19.254;2023-04-25T03:33:20;98057.22;;;21.19;53.48
74621;BME280;64861;47.546;19.254;2023-04-25T03:35:46;98054.13;;;21.15;53.60
74621;BME280;64861;47.546;19.254;2023-04-25T03:38:11;98046.78;;;21.17;53.62
74621;BME280;64861;47.546;19.254;2023-04-25T03:40:36;98050.25;;;21.18;53.46
74621;BME280;64861;47.546;19.254;2023-04-25T03:43:02;98061.91;;;21.17;53.48
74621;BME280;64861;47.546;19.254;2023-04-25T03:45:27;98053.56;;;21.20;53.57
74621;BME280;64861;47.546;19.254;2023-04-25T03:47:53;98055.19;;;21.21;53.46
74621;BME280;64861;47.546;19.254;2023-04-25T03:50:18;98054.38;;;21.20;53.27
74621;BME280;64861;47.546;19.254;2023-04-25T03:52:44;98061.53;;;21.20;53.33
74621;BME280;64861;47.546;19.254;2023-04-25T03:55:09;98052.53;;;21.21;53.33
74621;BME280;64861;47.546;19.254;2023-04-25T03:57:35;98047.44;;;21.19;53.44
74621;BME280;64861;47.546;19.254;2023-04-25T04:00:01;98060.72;;;21.19;53.53
74621;BME280;64861;47.546;19.254;2023-04-25T04:02:27;98056.59;;;21.17;53.50
74621;BME280;64861;47.546;19.254;2023-04-25T04:04:52;98060.72;;;21.19;53.36
74621;BME280;64861;47.546;19.254;2023-04-25T04:07:18;98058.22;;;21.18;53.30
74621;BME280;64861;47.546;19.254;2023-04-25T04:09:44;98064.78;;;21.22;53.31
74621;BME280;64861;47.546;19.254;2023-04-25T04:12:09;98059.69;;;21.20;53.20
74621;BME280;64861;47.546;19.254;2023-04-25T04:14:35;98064.34;;;21.18;53.39
74621;BME280;64861;47.546;19.254;2023-04-25T04:17:00;98062.53;;;21.19;53.21
74621;BME280;64861;47.546;19.254;2023-04-25T04:19:25;98058.47;;;21.23;53.30
74621;BME280;64861;47.546;19.254;2023-04-25T04:21:51;98059.28;;;21.23;53.08
74621;BME280;64861;47.546;19.254;2023-04-25T04:24:16;98066.06;;;21.26;53.07
74621;BME280;64861;47.546;19.254;2023-04-25T04:26:42;98063.78;;;21.23;53.10
74621;BME280;64861;47.546;19.254;2023-04-25T04:29:10;98062.94;;;21.22;53.05
74621;BME280;64861;47.546;19.254;2023-04-25T04:31:36;98066.44;;;21.23;53.09
74621;BME280;64861;47.546;19.254;2023-04-25T04:34:02;98075.84;;;21.25;53.11
74621;BME280;64861;47.546;19.254;2023-04-25T04:36:29;98072.38;;;21.25;52.98
74621;BME280;64861;47.546;19.254;2023-04-25T04:38:54;98066.06;;;21.26;52.96
74621;BME280;64861;47.546;19.254;2023-04-25T04:41:23;98070.75;;;21.24;53.00
74621;BME280;64861;47.546;19.254;2023-04-25T04:43:48;98064.41;;;21.25;53.13
74621;BME280;64861;47.546;19.254;2023-04-25T04:46:14;98076.69;;;21.26;53.11
74621;BME280;64861;47.546;19.254;2023-04-25T04:48:39;98072.38;;;21.25;52.93
74621;BME280;64861;47.546;19.254;2023-04-25T04:51:05;98074.84;;;21.26;53.11
74621;BME280;64861;47.546;19.254;2023-04-25T04:53:31;98081.78;;;21.27;52.97
74621;BME280;64861;47.546;19.254;2023-04-25T04:55:57;98082.81;;;21.26;52.95
74621;BME280;64861;47.546;19.254;2023-04-25T04:58:23;98078.09;;;21.28;52.93
74621;BME280;64861;47.546;19.254;2023-04-25T05:00:49;98076.09;;;21.30;52.79
74621;BME280;64861;47.546;19.254;2023-04-25T05:03:14;98079.78;;;21.29;52.81
74621;BME280;64861;47.546;19.254;2023-04-25T05:05:41;98084.06;;;21.30;52.79
74621;BME280;64861;47.546;19.254;2023-04-25T05:08:07;98087.53;;;21.31;52.90
74621;BME280;64861;47.546;19.254;2023-04-25T05:10:32;98082.84;;;21.33;52.69
74621;BME280;64861;47.546;19.254;2023-04-25T05:12:58;98085.50;;;21.33;52.76
74621;BME280;64861;47.546;19.254;2023-04-25T05:15:23;98088.16;;;21.33;52.73
74621;BME280;64861;47.546;19.254;2023-04-25T05:17:48;98087.13;;;21.34;52.86
74621;BME280;64861;47.546;19.254;2023-04-25T05:20:14;98083.66;;;21.33;52.77
74621;BME280;64861;47.546;19.254;2023-04-25T05:22:40;98090.47;;;21.36;52.68
74621;BME280;64861;47.546;19.254;2023-04-25T05:25:07;98088.63;;;21.37;52.90
74621;BME280;64861;47.546;19.254;2023-04-25T05:27:33;98090.47;;;21.36;52.89
74621;BME280;64861;47.546;19.254;2023-04-25T05:29:58;98084.31;;;21.35;52.74
74621;BME280;64861;47.546;19.254;2023-04-25T05:32:24;98089.44;;;21.37;52.67
74621;BME280;64861;47.546;19.254;2023-04-25T05:34:50;98081.47;;;21.37;52.81
74621;BME280;64861;47.546;19.254;2023-04-25T05:37:16;98086.56;;;21.39;53.06
74621;BME280;64861;47.546;19.254;2023-04-25T05:39:42;98081.25;;;21.39;52.63
74621;BME280;64861;47.546;19.254;2023-04-25T05:42:08;98086.38;;;21.40;52.69
74621;BME280;64861;47.546;19.254;2023-04-25T05:44:33;98093.16;;;21.43;52.68
74621;BME280;64861;47.546;19.254;2023-04-25T05:46:59;98094.16;;;21.42;52.69
74621;BME280;64861;47.546;19.254;2023-04-25T05:49:24;98081.50;;;21.44;52.66
74621;BME280;64861;47.546;19.254;2023-04-25T05:51:50;98094.16;;;21.42;52.72
74621;BME280;64861;47.546;19.254;2023-04-25T05:54:15;98094.16;;;21.42;52.50
74621;BME280;64861;47.546;19.254;2023-04-25T05:56:41;98095.81;;;21.43;52.82
74621;BME280;64861;47.546;19.254;2023-04-25T05:59:06;98097.63;;;21.42;52.61
74621;BME280;64861;47.546;19.254;2023-04-25T06:01:32;98098.94;;;21.25;49.87
74621;BME280;64861;47.546;19.254;2023-04-25T06:03:57;98094.44;;;21.25;51.62
74621;BME280;64861;47.546;19.254;2023-04-25T06:06:23;98091.22;;;21.30;52.45
74621;BME280;64861;47.546;19.254;2023-04-25T06:08:48;98089.78;;;21.34;52.57
74621;BME280;64861;47.546;19.254;2023-04-25T06:11:14;98092.72;;;21.39;52.52
74621;BME280;64861;47.546;19.254;2023-04-25T06:13:40;98092.31;;;21.42;52.67
74621;BME280;64861;47.546;19.254;2023-04-25T06:16:06;98105.59;;;21.42;52.66
74621;BME280;64861;47.546;19.254;2023-04-25T06:18:31;98103.78;;;21.43;52.80
74621;BME280;64861;47.546;19.254;2023-04-25T06:20:57;98102.94;;;21.42;52.95
74621;BME280;64861;47.546;19.254;2023-04-25T06:23:22;98100.09;;;21.44;53.02
74621;BME280;64861;47.546;19.254;2023-04-25T06:25:48;98105.03;;;21.47;53.00
74621;BME280;64861;47.546;19.254;2023-04-25T06:28:13;98106.91;;;21.53;53.03
74621;BME280;64861;47.546;19.254;2023-04-25T06:30:38;98105.06;;;21.53;53.23
74621;BME280;64861;47.546;19.254;2023-04-25T06:33:04;98107.72;;;21.53;53.25
74621;BME280;64861;47.546;19.254;2023-04-25T06:35:29;98103.22;;;21.54;53.56
74621;BME280;64861;47.546;19.254;2023-04-25T06:37:55;98114.28;;;21.57;53.45
74621;BME280;64861;47.546;19.254;2023-04-25T06:40:20;98114.91;;;21.60;53.55
74621;BME280;64861;47.546;19.254;2023-04-25T06:42:46;98113.47;;;21.57;53.66
74621;BME280;64861;47.546;19.254;2023-04-25T06:45:11;98117.19;;;21.63;53.72
74621;BME280;64861;47.546;19.254;2023-04-25T06:47:37;98124.75;;;21.66;53.67
74621;BME280;64861;47.546;19.254;2023-04-25T06:50:03;98125.78;;;21.71;53.58
74621;BME280;64861;47.546;19.254;2023-04-25T06:52:28;98122.94;;;21.73;53.77
74621;BME280;64861;47.546;19.254;2023-04-25T06:54:53;98126.03;;;21.76;53.70
74621;BME280;64861;47.546;19.254;2023-04-25T06:57:19;98120.72;;;21.76;53.71
74621;BME280;64861;47.546;19.254;2023-04-25T06:59:44;98125.25;;;21.83;53.64
74621;BME280;64861;47.546;19.254;2023-04-25T07:02:10;98127.09;;;21.82;53.61
74621;BME280;64861;47.546;19.254;2023-04-25T07:04:35;98128.31;;;21.86;53.53
74621;BME280;64861;47.546;19.254;2023-04-25T07:07:01;98121.97;;;21.87;53.62
74621;BME280;64861;47.546;19.254;2023-04-25T07:09:28;98121.34;;;21.85;53.82
74621;BME280;64861;47.546;19.254;2023-04-25T07:11:54;98124.84;;;21.86;53.58
74621;BME280;64861;47.546;19.254;2023-04-25T07:14:19;98123.59;;;21.88;53.61
74621;BME280;64861;47.546;19.254;2023-04-25T07:16:45;98123.41;;;21.90;53.74
74621;BME280;64861;47.546;19.254;2023-04-25T07:19:10;98120.53;;;21.91;53.63
74621;BME280;64861;47.546;19.254;2023-04-25T07:21:36;98127.53;;;21.92;53.61
74621;BME280;64861;47.546;19.254;2023-04-25T07:24:01;98125.47;;;21.94;53.61
74621;BME280;64861;47.546;19.254;2023-04-25T07:26:27;98124.28;;;22.03;53.58
74621;BME280;64861;47.546;19.254;2023-04-25T07:28:53;98127.75;;;22.04;53.48
74621;BME280;64861;47.546;19.254;2023-04-25T07:31:20;98123.06;;;22.06;53.49
74621;BME280;64861;47.546;19.254;2023-04-25T07:33:45;98129.22;;;22.13;53.36
74621;BME280;64861;47.546;19.254;2023-04-25T07:36:12;98122.06;;;22.14;53.21
74621;BME280;64861;47.546;19.254;2023-04-25T07:38:38;98122.72;;;22.16;53.26
74621;BME280;64861;47.546;19.254;2023-04-25T07:41:03;98129.28;;;22.20;53.19
74621;BME280;64861;47.546;19.254;2023-04-25T07:43:29;98129.47;;;22.18;53.48
74621;BME280;64861;47.546;19.254;2023-04-25T07:45:56;98129.28;;;22.20;53.46
74621;BME280;64861;47.546;19.254;2023-04-25T07:48:22;98124.38;;;22.23;53.18
74621;BME280;64861;47.546;19.254;2023-04-25T07:50:47;98127.25;;;22.22;53.31
74621;BME280;64861;47.546;19.254;2023-04-25T07:53:13;98133.38;;;22.22;53.38
74621;BME280;64861;47.546;19.254;2023-04-25T07:55:39;98137.66;;;22.23;53.32
74621;BME280;64861;47.546;19.254;2023-04-25T07:58:07;98136.63;;;22.24;53.19
74621;BME280;64861;47.546;19.254;2023-04-25T08:00:33;98133.78;;;22.26;53.43
74621;BME280;64861;47.546;19.254;2023-04-25T08:02:58;98137.28;;;22.26;53.30
74621;BME280;64861;47.546;19.254;2023-04-25T08:05:24;98135.84;;;22.31;53.15
74621;BME280;64861;47.546;19.254;2023-04-25T08:07:49;98133.41;;;22.36;53.19
74621;BME280;64861;47.546;19.254;2023-04-25T08:10:15;98142.81;;;22.38;53.42
74621;BME280;64861;47.546;19.254;2023-04-25T08:12:40;98131.75;;;22.48;52.57
74621;BME280;64861;47.546;19.254;2023-04-25T08:15:06;98141.44;;;22.56;52.47
74621;BME280;64861;47.546;19.254;2023-04-25T08:17:32;98140.41;;;22.57;52.25
74621;BME280;64861;47.546;19.254;2023-04-25T08:19:57;98139.78;;;22.61;52.28
74621;BME280;64861;47.546;19.254;2023-04-25T08:22:23;98138.38;;;22.65;52.29
74621;BME280;64861;47.546;19.254;2023-04-25T08:24:48;98134.25;;;22.69;51.91
74621;BME280;64861;47.546;19.254;2023-04-25T08:27:14;98141.63;;;22.67;52.03
74621;BME280;64861;47.546;19.254;2023-04-25T08:29:40;98138.78;;;22.69;51.99
74621;BME280;64861;47.546;19.254;2023-04-25T08:32:06;98143.88;;;22.70;51.89
74621;BME280;64861;47.546;19.254;2023-04-25T08:34:32;98140.41;;;22.70;52.01
74621;BME280;64861;47.546;19.254;2023-04-25T08:36:57;98137.97;;;22.75;51.95
74621;BME280;64861;47.546;19.254;2023-04-25T08:39:22;98144.50;;;22.79;51.75
74621;BME280;64861;47.546;19.254;2023-04-25T08:41:48;98140.63;;;22.82;51.51
74621;BME280;64861;47.546;19.254;2023-04-25T08:44:14;98144.69;;;22.84;51.62
74621;BME280;64861;47.546;19.254;2023-04-25T08:46:40;98144.31;;;22.94;51.30
74621;BME280;64861;47.546;19.254;2023-04-25T08:49:07;98144.91;;;22.89;51.44
74621;BME280;64861;47.546;19.254;2023-04-25T08:51:36;98153.75;;;23.03;51.15
74621;BME280;64861;47.546;19.254;2023-04-25T08:54:14;98151.50;;;22.93;51.58
74621;BME280;64861;47.546;19.254;2023-04-25T08:56:47;98154.16;;;23.00;51.40
74621;BME280;64861;47.546;19.254;2023-04-25T08:59:13;98153.13;;;22.94;51.69
74621;BME280;64861;47.546;19.254;2023-04-25T09:01:39;98155.78;;;22.94;51.47
74621;BME280;64861;47.546;19.254;2023-04-25T09:04:05;98159.09;;;22.96;51.42
74621;BME280;64861;47.546;19.254;2023-04-25T09:06:31;98153.53;;;23.38;50.52
74621;BME280;64861;47.546;19.254;2023-04-25T09:09:07;98158.44;;;23.28;50.65
74621;BME280;64861;47.546;19.254;2023-04-25T09:11:34;98145.84;;;23.81;49.39
74621;BME280;64861;47.546;19.254;2023-04-25T09:14:18;98151.56;;;23.91;49.06
74621;BME280;64861;47.546;19.254;2023-04-25T09:16:58;98165.38;;;23.55;50.15
74621;BME280;64861;47.546;19.254;2023-04-25T09:19:32;98161.47;;;23.71;49.73
74621;BME280;64861;47.546;19.254;2023-04-25T09:22:00;98162.88;;;23.60;50.15
74621;BME280;64861;47.546;19.254;2023-04-25T09:27:09;98161.53;;;23.25;50.98
74621;BME280;64861;47.546;19.254;2023-04-25T09:29:37;98157.16;;;23.57;49.88
74621;BME280;64861;47.546;19.254;2023-04-25T09:32:22;98151.44;;;23.47;49.95
74621;BME280;64861;47.546;19.254;2023-04-25T09:34:50;98166.16;;;23.82;49.45
74621;BME280;64861;47.546;19.254;2023-04-25T09:37:27;98160.28;;;24.57;47.51
74621;BME280;64861;47.546;19.254;2023-04-25T09:39:58;98154.34;;;24.48;47.58
74621;BME280;64861;47.546;19.254;2023-04-25T09:42:30;98152.22;;;24.64;47.19
74621;BME280;64861;47.546;19.254;2023-04-25T09:44:58;98149.16;;;25.10;45.90
74621;BME280;64861;47.546;19.254;2023-04-25T09:47:25;98153.03;;;24.64;46.96
74621;BME280;64861;47.546;19.254;2023-04-25T09:49:52;98157.81;;;24.10;48.55
74621;BME280;64861;47.546;19.254;2023-04-25T09:52:20;98150.69;;;24.43;47.54
74621;BME280;64861;47.546;19.254;2023-04-25T09:54:47;98154.56;;;24.40;47.93
74621;BME280;64861;47.546;19.254;2023-04-25T09:57:25;98156.63;;;25.70;44.70
74621;BME280;64861;47.546;19.254;2023-04-25T09:59:52;98152.09;;;25.02;46.39
74621;BME280;64861;47.546;19.254;2023-04-25T10:02:21;98148.34;;;25.71;45.08
74621;BME280;64861;47.546;19.254;2023-04-25T10:04:51;98150.47;;;25.01;46.13
74621;BME280;64861;47.546;19.254;2023-04-25T10:07:20;98147.16;;;25.49;45.57
74621;BME280;64861;47.546;19.254;2023-04-25T10:09:49;98152.44;;;24.87;46.51
74621;BME280;64861;47.546;19.254;2023-04-25T10:12:16;98159.09;;;24.39;47.97
74621;BME280;64861;47.546;19.254;2023-04-25T10:14:42;98151.75;;;23.90;48.81
74621;BME280;64861;47.546;19.254;2023-04-25T10:17:10;98151.22;;;23.55;49.95
74621;BME280;64861;47.546;19.254;2023-04-25T10:19:36;98151.06;;;23.36;50.38
74621;BME280;64861;47.546;19.254;2023-04-25T10:22:15;98151.50;;;23.13;51.34
74621;BME280;64861;47.546;19.254;2023-04-25T10:24:43;98155.38;;;23.24;50.85
74621;BME280;64861;47.546;19.254;2023-04-25T10:27:09;98142.44;;;23.21;51.00
74621;BME280;64861;47.546;19.254;2023-04-25T10:29:36;98144.72;;;23.11;51.16
74621;BME280;64861;47.546;19.254;2023-04-25T10:32:02;98149.06;;;23.05;51.47
74621;BME280;64861;47.546;19.254;2023-04-25T10:34:44;98153.94;;;22.88;51.58
74621;BME280;64861;47.546;19.254;2023-04-25T10:37:13;98150.66;;;22.73;52.26
74621;BME280;64861;47.546;19.254;2023-04-25T10:39:41;98150.66;;;22.73;52.19
74621;BME280;64861;47.546;19.254;2023-04-25T10:42:08;98149.63;;;22.81;52.01
74621;BME280;64861;47.546;19.254;2023-04-25T10:44:33;98158.66;;;22.80;51.84
74621;BME280;64861;47.546;19.254;2023-04-25T10:47:01;98151.88;;;22.90;51.51
74621;BME280;64861;47.546;19.254;2023-04-25T10:49:32;98153.56;;;22.98;51.36
74621;BME280;64861;47.546;19.254;2023-04-25T10:52:11;98149.88;;;22.99;51.51
74621;BME280;64861;47.546;19.254;2023-04-25T10:54:46;98154.78;;;23.02;51.57
74621;BME280;64861;47.546;19.254;2023-04-25T10:57:39;98159.09;;;23.10;51.19
74621;BME280;64861;47.546;19.254;2023-04-25T11:00:09;98156.00;;;23.13;51.13
74621;BME280;64861;47.546;19.254;2023-04-25T11:02:43;98172.41;;;23.10;51.42
74621;BME280;64861;47.546;19.254;2023-04-25T11:05:14;98172.63;;;23.08;51.28
74621;BME280;64861;47.546;19.254;2023-04-25T11:07:49;98175.47;;;23.13;51.08
74621;BME280;64861;47.546;19.254;2023-04-25T11:10:17;98184.69;;;23.11;50.94
74621;BME280;64861;47.546;19.254;2023-04-25T11:12:44;98187.59;;;23.09;50.99
74621;BME280;64861;47.546;19.254;2023-04-25T11:15:10;98184.28;;;23.07;51.14
74621;BME280;64861;47.546;19.254;2023-04-25T11:17:35;98187.78;;;23.14;51.01
74621;BME280;64861;47.546;19.254;2023-04-25T11:20:01;98189.84;;;23.19;50.83
74621;BME280;64861;47.546;19.254;2023-04-25T11:22:33;98190.03;;;23.24;50.54
74621;BME280;64861;47.546;19.254;2023-04-25T11:25:05;98191.88;;;23.30;50.47
74621;BME280;64861;47.546;19.254;2023-04-25T11:27:31;98191.28;;;23.21;50.77
74621;BME280;64861;47.546;19.254;2023-04-25T11:29:56;98193.09;;;23.14;51.11
74621;BME280;64861;47.546;19.254;2023-04-25T11:32:21;98202.75;;;23.15;50.97
74621;BME280;64861;47.546;19.254;2023-04-25T11:34:47;98207.88;;;23.24;50.67
74621;BME280;64861;47.546;19.254;2023-04-25T11:37:13;98202.75;;;23.35;50.27
74621;BME280;64861;47.546;19.254;2023-04-25T11:39:43;98207.03;;;23.36;50.45
74621;BME280;64861;47.546;19.254;2023-04-25T11:42:10;98214.41;;;23.34;50.30
74621;BME280;64861;47.546;19.254;2023-04-25T11:44:38;98214.22;;;23.23;50.70
74621;BME280;64861;47.546;19.254;2023-04-25T11:47:05;98215.69;;;23.18;50.89
74621;BME280;64861;47.546;19.254;2023-04-25T11:49:31;98217.53;;;23.18;50.81
74621;BME280;64861;47.546;19.254;2023-04-25T11:51:57;98206.41;;;23.21;51.00
74621;BME280;64861;47.546;19.254;2023-04-25T11:54:22;98204.78;;;23.27;50.81
74621;BME280;64861;47.546;19.254;2023-04-25T11:56:48;98217.53;;;23.31;50.69
74621;BME280;64861;47.546;19.254;2023-04-25T11:59:13;98210.34;;;23.32;50.67
74621;BME280;64861;47.546;19.254;2023-04-25T12:01:41;98211.97;;;23.33;50.67
74621;BME280;64861;47.546;19.254;2023-04-25T12:04:23;98216.06;;;23.35;50.72
74621;BME280;64861;47.546;19.254;2023-04-25T12:06:50;98222.41;;;23.34;50.58
74621;BME280;64861;47.546;19.254;2023-04-25T12:09:18;98228.19;;;23.31;50.84
74621;BME280;64861;47.546;19.254;2023-04-25T12:11:54;98221.41;;;23.29;51.00
74621;BME280;64861;47.546;19.254;2023-04-25T12:14:25;98220.38;;;23.23;50.89
74621;BME280;64861;47.546;19.254;2023-04-25T12:16:52;98227.56;;;23.23;51.03
74621;BME280;64861;47.546;19.254;2023-04-25T12:19:20;98229.19;;;23.24;50.72
74621;BME280;64861;47.546;19.254;2023-04-25T12:21:46;98231.84;;;23.24;51.01
74621;BME280;64861;47.546;19.254;2023-04-25T12:24:23;98230.00;;;23.24;50.89
74621;BME280;64861;47.546;19.254;2023-04-25T12:27:01;98236.38;;;23.23;50.83
74621;BME280;64861;47.546;19.254;2023-04-25T12:29:30;98230.84;;;23.11;51.33
74621;BME280;64861;47.546;19.254;2023-04-25T12:31:56;98235.53;;;23.03;51.45
74621;BME280;64861;47.546;19.254;2023-04-25T12:34:23;98225.06;;;23.01;51.65
74621;BME280;64861;47.546;19.254;2023-04-25T12:36:49;98225.28;;;23.00;51.58
74621;BME280;64861;47.546;19.254;2023-04-25T12:39:17;98229.59;;;23.14;51.15
74621;BME280;64861;47.546;19.254;2023-04-25T12:41:43;98224.47;;;23.19;51.03
74621;BME280;64861;47.546;19.254;2023-04-25T12:44:09;98224.88;;;23.23;50.84
74621;BME280;64861;47.546;19.254;2023-04-25T12:46:35;98217.53;;;23.25;50.95
74621;BME280;64861;47.546;19.254;2023-04-25T12:49:01;98213.81;;;23.26;50.80
74621;BME280;64861;47.546;19.254;2023-04-25T12:51:26;98219.34;;;23.24;50.83